Time;durP1;ratioP1;P1;durP2;ratioP2;P2;SDS_P1;SDS_P2;PMS_P1;PMS_P2;Temp;Humidity;BMP_temperature;BMP_pressure;BME280_temperature;BME280_humidity;BME280_pressure;Samples;Min_cycle;Max_cycle;Signal;HPM_P1;HPM_P2
2023/04/13 00:02:03;;;;;;;;;;;;;;;;;;4996694;28;20428;-74
2023/04/13 00:04:33;;;;;;;17.60;4.07;;;;;;;;;;4997346;28;19920;-75
2023/04/13 00:07:01;;;;;;;17.13;3.90;;;;;;;;;;5001526;28;20152;-75
2023/04/13 00:09:30;;;;;;;14.40;3.47;;;;;;;;;;5017994;28;20025;-75
2023/04/13 00:11:57;;;;;;;19.42;3.80;;;;;;;;;;4997096;28;20045;-76
2023/04/13 00:14:32;;;;;;;21.13;4.90;;;;;;;;;;5007579;28;20541;-76
2023/04/13 00:16:58;;;;;;;17.65;4.20;;;;;;;;;;4999743;28;20040;-76
2023/04/13 00:19:25;;;;;;;16.90;4.15;;;;;;;;;;5002103;28;20227;-74
2023/04/13 00:21:54;;;;;;;;;;;;;;;;;;5002471;28;20066;-74
2023/04/13 00:24:20;;;;;;;18.38;4.45;;;;;;;;;;5001171;28;19920;-75
2023/04/13 00:26:46;;;;;;;16.27;4.43;;;;;;;;;;5001335;28;20020;-74
2023/04/13 00:29:12;;;;;;;;;;;;;;;;;;4996260;28;20317;-77
2023/04/13 00:31:38;;;;;;;17.85;3.70;;;;;;;;;;4996492;28;19944;-75
2023/04/13 00:34:04;;;;;;;;;;;;;;;;;;4999892;28;20384;-75
2023/04/13 00:36:31;;;;;;;21.15;4.00;;;;;;;;;;5000282;28;20419;-75
2023/04/13 00:38:57;;;;;;;;;;;;;;;;;;4997972;28;20186;-75
2023/04/13 00:41:24;;;;;;;18.98;4.38;;;;;;;;;;5002389;28;19913;-75
2023/04/13 00:43:51;;;;;;;18.25;3.97;;;;;;;;;;5005717;28;20467;-75
2023/04/13 00:46:24;;;;;;;19.05;3.88;;;;;;;;;;5010616;28;20037;-74
2023/04/13 00:48:51;;;;;;;25.52;4.30;;;;;;;;;;5010919;28;20033;-74
2023/04/13 00:51:18;;;;;;;18.85;3.88;;;;;;;;;;5011140;28;20038;-74
2023/04/13 00:53:44;;;;;;;17.15;4.47;;;;;;;;;;5018738;28;20029;-77
2023/04/13 00:56:10;;;;;;;;;;;;;;;;;;4998703;28;20026;-73
2023/04/13 00:58:37;;;;;;;19.67;4.35;;;;;;;;;;5007580;28;20367;-77
2023/04/13 01:01:03;;;;;;;;;;;;;;;;;;4998329;28;20048;-76
2023/04/13 01:03:29;;;;;;;21.83;4.05;;;;;;;;;;5005731;28;20066;-76
2023/04/13 01:05:55;;;;;;;;;;;;;;;;;;5004513;28;20035;-73
2023/04/13 01:08:27;;;;;;;13.93;3.47;;;;;;;;;;4997707;28;19913;-75
2023/04/13 01:10:57;;;;;;;15.57;3.95;;;;;;;;;;5003099;28;20022;-76
2023/04/13 01:13:42;;;;;;;20.98;4.55;;;;;;;;;;5004271;28;20554;-76
2023/04/13 01:16:08;;;;;;;16.95;3.83;;;;;;;;;;4993650;28;20526;-76
2023/04/13 01:18:37;;;;;;;14.25;3.65;;;;;;;;;;4999962;28;20788;-75
2023/04/13 01:21:04;;;;;;;14.80;3.65;;;;;;;;;;4999052;28;20332;-75
2023/04/13 01:23:37;;;;;;;17.48;3.97;;;;;;;;;;5003984;28;20084;-76
2023/04/13 01:26:07;;;;;;;19.38;3.80;;;;;;;;;;4995980;28;20444;-76
2023/04/13 01:28:34;;;;;;;15.95;3.80;;;;;;;;;;4998862;28;20163;-76
2023/04/13 01:31:04;;;;;;;16.88;4.30;;;;;;;;;;4996310;28;20224;-75
2023/04/13 01:33:32;;;;;;;18.10;4.22;;;;;;;;;;5001551;28;20061;-74
2023/04/13 01:36:00;;;;;;;19.08;3.25;;;;;;;;;;4998673;28;20579;-74
2023/04/13 01:38:27;;;;;;;16.63;3.35;;;;;;;;;;4999546;28;20052;-74
2023/04/13 01:40:52;;;;;;;;;;;;;;;;;;5007535;28;20103;-73
2023/04/13 01:43:19;;;;;;;16.50;4.10;;;;;;;;;;4992967;28;20360;-74
2023/04/13 01:45:49;;;;;;;17.92;3.95;;;;;;;;;;4994006;28;20038;-74
2023/04/13 01:48:18;;;;;;;21.20;4.07;;;;;;;;;;4998028;28;20713;-76
2023/04/13 01:51:04;;;;;;;14.55;3.28;;;;;;;;;;4999727;28;20034;-74
2023/04/13 01:53:35;;;;;;;18.37;3.63;;;;;;;;;;4999092;28;20042;-75
2023/04/13 01:56:03;;;;;;;15.27;3.33;;;;;;;;;;4996479;28;20034;-76
2023/04/13 01:58:32;;;;;;;17.63;3.30;;;;;;;;;;5002183;28;20042;-76
2023/04/13 02:00:58;;;;;;;16.63;3.10;;;;;;;;;;4996806;28;20172;-76
2023/04/13 02:03:25;;;;;;;16.85;3.58;;;;;;;;;;5001253;28;20529;-74
2023/04/13 02:05:51;;;;;;;18.02;3.65;;;;;;;;;;4999737;28;20583;-76
2023/04/13 02:08:19;;;;;;;19.77;4.13;;;;;;;;;;4993809;28;20480;-76
2023/04/13 02:10:45;;;;;;;14.85;3.38;;;;;;;;;;5004054;28;20558;-74
2023/04/13 02:13:12;;;;;;;16.13;3.60;;;;;;;;;;4999885;28;20586;-77
2023/04/13 02:15:38;;;;;;;19.98;4.28;;;;;;;;;;5011686;28;20072;-74
2023/04/13 02:18:05;;;;;;;15.13;3.67;;;;;;;;;;4994430;28;20368;-74
2023/04/13 02:20:41;;;;;;;22.88;4.93;;;;;;;;;;5001201;28;20391;-74
2023/04/13 02:23:09;;;;;;;15.20;3.67;;;;;;;;;;4994819;28;20543;-74
2023/04/13 02:25:35;;;;;;;16.42;3.80;;;;;;;;;;4999633;28;20034;-74
2023/04/13 02:28:01;;;;;;;;;;;;;;;;;;4998320;28;20360;-77
2023/04/13 02:30:27;;;;;;;21.02;3.83;;;;;;;;;;4999838;28;19939;-75
2023/04/13 02:32:53;;;;;;;20.42;3.50;;;;;;;;;;5000743;28;20655;-74
2023/04/13 02:35:19;;;;;;;;;;;;;;;;;;4996204;28;20044;-75
2023/04/13 02:37:47;;;;;;;18.35;3.80;;;;;;;;;;5003133;28;19939;-74
2023/04/13 02:40:14;;;;;;;18.05;3.65;;;;;;;;;;4997153;28;20025;-74
2023/04/13 02:42:41;;;;;;;18.65;3.55;;;;;;;;;;5008263;28;20110;-74
2023/04/13 02:45:10;;;;;;;16.58;3.63;;;;;;;;;;4999530;28;20112;-76
2023/04/13 02:47:37;;;;;;;21.20;4.43;;;;;;;;;;5001547;28;20068;-74
2023/04/13 02:50:03;;;;;;;20.08;4.20;;;;;;;;;;4996610;28;20076;-76
2023/04/13 02:52:30;;;;;;;18.02;3.97;;;;;;;;;;5000946;28;20333;-76
2023/04/13 02:54:57;;;;;;;16.00;3.72;;;;;;;;;;4999708;28;20036;-75
2023/04/13 02:57:24;;;;;;;15.32;3.70;;;;;;;;;;4999869;28;20380;-77
2023/04/13 02:59:50;;;;;;;16.42;3.33;;;;;;;;;;4996187;28;20033;-75
2023/04/13 03:02:17;;;;;;;18.95;3.72;;;;;;;;;;4995717;28;20055;-75
2023/04/13 03:04:44;;;;;;;14.18;3.20;;;;;;;;;;5001484;28;20284;-75
2023/04/13 03:07:10;;;;;;;17.48;3.63;;;;;;;;;;5000925;28;20121;-75
2023/04/13 03:09:37;;;;;;;21.75;3.72;;;;;;;;;;5001486;28;20033;-75
2023/04/13 03:12:03;;;;;;;17.20;3.88;;;;;;;;;;4995859;28;20045;-75
2023/04/13 03:14:29;;;;;;;;;;;;;;;;;;4997663;28;20215;-74
2023/04/13 03:16:57;;;;;;;21.65;4.10;;;;;;;;;;5001693;28;20282;-74
2023/04/13 03:19:23;;;;;;;16.83;3.35;;;;;;;;;;4998572;28;20168;-76
2023/04/13 03:21:49;;;;;;;18.05;3.90;;;;;;;;;;4998019;28;20033;-74
2023/04/13 03:24:15;;;;;;;17.02;3.78;;;;;;;;;;4997710;28;22494;-74
2023/04/13 03:26:41;;;;;;;;;;;;;;;;;;5000754;28;20029;-74
2023/04/13 03:29:07;;;;;;;19.42;3.40;;;;;;;;;;4994732;28;19948;-74
2023/04/13 03:31:33;;;;;;;;;;;;;;;;;;4998331;28;21041;-74
2023/04/13 03:34:00;;;;;;;23.90;4.28;;;;;;;;;;4996765;28;20441;-75
2023/04/13 03:36:27;;;;;;;17.42;3.97;;;;;;;;;;5002314;28;20487;-75
2023/04/13 03:38:54;;;;;;;15.30;3.80;;;;;;;;;;5000388;28;20517;-75
2023/04/13 03:41:20;;;;;;;20.17;4.07;;;;;;;;;;5003816;28;20670;-75
2023/04/13 03:43:46;;;;;;;;;;;;;;;;;;5003007;28;20040;-76
2023/04/13 03:46:12;;;;;;;20.40;3.95;;;;;;;;;;4997676;28;19944;-75
2023/04/13 03:48:38;;;;;;;;;;;;;;;;;;5005155;28;20038;-76
2023/04/13 03:51:05;;;;;;;22.05;3.95;;;;;;;;;;4998710;28;19934;-76
2023/04/13 03:53:31;;;;;;;17.63;3.95;;;;;;;;;;4998620;28;20037;-76
2023/04/13 03:55:57;;;;;;;;;;;;;;;;;;5001049;28;20087;-75
2023/04/13 03:58:23;;;;;;;17.08;3.88;;;;;;;;;;5002492;28;19918;-76
2023/04/13 04:00:49;;;;;;;17.85;3.78;;;;;;;;;;4997735;28;20287;-76
2023/04/13 04:03:16;;;;;;;15.32;3.63;;;;;;;;;;5001808;28;22516;-75
2023/04/13 04:05:42;;;;;;;18.27;3.85;;;;;;;;;;4998849;28;20029;-75
2023/04/13 04:08:08;;;;;;;16.05;3.67;;;;;;;;;;4997586;28;21119;-75
2023/04/13 04:10:34;;;;;;;19.60;3.85;;;;;;;;;;4999324;28;20037;-74
2023/04/13 04:13:00;;;;;;;;;;;;;;;;;;4995069;28;20145;-74
2023/04/13 04:15:27;;;;;;;16.90;3.78;;;;;;;;;;4999963;28;20314;-76
2023/04/13 04:17:53;;;;;;;17.63;3.65;;;;;;;;;;5004046;28;20124;-76
2023/04/13 04:20:19;;;;;;;22.17;3.72;;;;;;;;;;5002161;28;20287;-74
2023/04/13 04:22:46;;;;;;;17.60;3.75;;;;;;;;;;5000284;28;20030;-74
2023/04/13 04:25:21;;;;;;;15.98;3.90;;;;;;;;;;5002458;28;20026;-75
2023/04/13 04:27:49;;;;;;;17.35;3.60;;;;;;;;;;4999755;28;20582;-75
2023/04/13 04:30:17;;;;;;;19.70;3.78;;;;;;;;;;4997490;28;21812;-74
2023/04/13 04:32:44;;;;;;;18.65;4.43;;;;;;;;;;5000551;28;20037;-75
2023/04/13 04:35:16;;;;;;;21.30;4.32;;;;;;;;;;4997382;28;20523;-75
2023/04/13 04:37:42;;;;;;;17.48;4.18;;;;;;;;;;5000261;28;20505;-75
2023/04/13 04:40:08;;;;;;;20.13;4.68;;;;;;;;;;5000031;28;20037;-75
2023/04/13 04:42:36;;;;;;;21.23;3.67;;;;;;;;;;5003107;28;20041;-75
2023/04/13 04:45:03;;;;;;;15.88;3.47;;;;;;;;;;4998357;28;20048;-74
2023/04/13 04:47:29;;;;;;;17.52;4.15;;;;;;;;;;5006775;28;20037;-74
2023/04/13 04:49:56;;;;;;;;;;;;;;;;;;5006110;28;20025;-74
2023/04/13 04:52:23;;;;;;;26.15;4.75;;;;;;;;;;5006036;28;19971;-77
2023/04/13 04:54:50;;;;;;;20.80;4.32;;;;;;;;;;5003981;28;20045;-74
2023/04/13 04:57:17;;;;;;;18.08;4.28;;;;;;;;;;5001485;28;20029;-76
2023/04/13 04:59:43;;;;;;;17.90;4.47;;;;;;;;;;5004237;28;20045;-75
2023/04/13 05:02:09;;;;;;;17.52;3.88;;;;;;;;;;5000812;28;20046;-75
2023/04/13 05:04:35;;;;;;;;;;;;;;;;;;5007016;28;20069;-74
2023/04/13 05:07:01;;;;;;;19.15;4.13;;;;;;;;;;5001646;28;20352;-74
2023/04/13 05:09:27;;;;;;;;;;;;;;;;;;5002624;28;20026;-74
2023/04/13 05:11:55;;;;;;;20.27;4.45;;;;;;;;;;5004595;28;20415;-76
2023/04/13 05:14:21;;;;;;;19.27;4.13;;;;;;;;;;5004901;28;20034;-75
2023/04/13 05:16:47;;;;;;;19.60;4.30;;;;;;;;;;5006796;28;20026;-75
2023/04/13 05:19:13;;;;;;;19.17;3.90;;;;;;;;;;5002486;28;20556;-76
2023/04/13 05:21:40;;;;;;;16.42;4.13;;;;;;;;;;5002458;28;20436;-74
2023/04/13 05:24:06;;;;;;;;;;;;;;;;;;5000627;28;20033;-75
2023/04/13 05:26:33;;;;;;;14.10;3.70;;;;;;;;;;5001054;28;20012;-74
2023/04/13 05:28:59;;;;;;;18.13;3.95;;;;;;;;;;5000316;28;20112;-74
2023/04/13 05:31:26;;;;;;;;;;;;;;;;;;5001505;28;20057;-74
2023/04/13 05:33:52;;;;;;;;;;;;;;;;;;5003532;28;19950;-76
2023/04/13 05:36:18;;;;;;;21.05;4.70;;;;;;;;;;5002139;28;20030;-76
2023/04/13 05:38:44;;;;;;;21.00;4.22;;;;;;;;;;5001718;28;20044;-76
2023/04/13 05:41:11;;;;;;;;;;;;;;;;;;5004875;28;20039;-76
2023/04/13 05:43:38;;;;;;;15.40;3.35;;;;;;;;;;4997126;28;19917;-76
2023/04/13 05:46:05;;;;;;;18.40;4.35;;;;;;;;;;4998627;28;20029;-75
2023/04/13 05:48:31;;;;;;;19.80;4.13;;;;;;;;;;5009377;28;20064;-75
2023/04/13 05:50:57;;;;;;;15.90;3.83;;;;;;;;;;5004501;28;20026;-75
2023/04/13 05:53:24;;;;;;;;;;;;;;;;;;5007818;28;20045;-74
2023/04/13 05:55:50;;;;;;;17.60;4.05;;;;;;;;;;5005153;28;19944;-74
2023/04/13 05:58:17;;;;;;;17.15;3.92;;;;;;;;;;5006397;28;20553;-74
2023/04/13 06:00:44;;;;;;;18.20;3.90;;;;;;;;;;5009297;28;20570;-77
2023/04/13 06:03:11;;;;;;;17.85;3.78;;;;;;;;;;5000023;28;20045;-74
2023/04/13 06:05:38;;;;;;;16.75;3.60;;;;;;;;;;5005633;28;20459;-74
2023/04/13 06:08:04;;;;;;;17.60;3.65;;;;;;;;;;5003489;28;20049;-74
2023/04/13 06:10:30;;;;;;;;;;;;;;;;;;5009939;28;20533;-75
2023/04/13 06:12:57;;;;;;;14.73;3.50;;;;;;;;;;5007012;28;19961;-75
2023/04/13 06:15:24;;;;;;;17.88;4.15;;;;;;;;;;5004636;28;20048;-76
2023/04/13 06:17:51;;;;;;;18.92;4.20;;;;;;;;;;5002864;28;20022;-75
2023/04/13 06:20:18;;;;;;;17.25;3.53;;;;;;;;;;5003049;28;20245;-75
2023/04/13 06:22:45;;;;;;;17.77;5.00;;;;;;;;;;5002788;28;20033;-74
2023/04/13 06:25:12;;;;;;;16.08;3.50;;;;;;;;;;5016544;28;20115;-75
2023/04/13 06:27:38;;;;;;;14.82;3.95;;;;;;;;;;5007376;28;20812;-76
2023/04/13 06:30:04;;;;;;;;;;;;;;;;;;5005223;28;20322;-74
2023/04/13 06:32:30;;;;;;;21.55;3.90;;;;;;;;;;5006590;28;19913;-75
2023/04/13 06:34:56;;;;;;;18.23;4.20;;;;;;;;;;5004345;28;20034;-74
2023/04/13 06:37:22;;;;;;;;;;;;;;;;;;5007203;28;20503;-75
2023/04/13 06:39:48;;;;;;;15.50;3.38;;;;;;;;;;5004916;28;20363;-76
2023/04/13 06:42:15;;;;;;;;;;;;;;;;;;4999731;28;20036;-76
2023/04/13 06:44:41;;;;;;;15.43;3.40;;;;;;;;;;5005016;28;20000;-76
2023/04/13 06:47:07;;;;;;;16.80;3.58;;;;;;;;;;4996632;28;20029;-76
2023/04/13 06:49:33;;;;;;;;;;;;;;;;;;5004552;28;20025;-74
2023/04/13 06:52:00;;;;;;;14.77;3.65;;;;;;;;;;5000444;28;19914;-76
2023/04/13 06:54:26;;;;;;;;;;;;;;;;;;5001104;28;20353;-75
2023/04/13 06:56:52;;;;;;;13.50;3.40;;;;;;;;;;5004918;28;20077;-76
2023/04/13 06:59:18;;;;;;;;;;;;;;;;;;5001745;28;20041;-76
2023/04/13 07:01:44;;;;;;;17.48;3.28;;;;;;;;;;5008261;28;20431;-75
2023/04/13 07:04:10;;;;;;;;;;;;;;;;;;5004980;28;20046;-75
2023/04/13 07:06:37;;;;;;;15.65;3.65;;;;;;;;;;5009752;28;19913;-75
2023/04/13 07:09:04;;;;;;;14.10;3.10;;;;;;;;;;4997013;28;20446;-75
2023/04/13 07:11:30;;;;;;;12.25;2.78;;;;;;;;;;5008983;28;20053;-74
2023/04/13 07:13:56;;;;;;;;;;;;;;;;;;5006542;28;20502;-74
2023/04/13 07:16:22;;;;;;;13.98;3.25;;;;;;;;;;5007929;28;19912;-75
2023/04/13 07:18:48;;;;;;;15.05;3.45;;;;;;;;;;5007778;28;20274;-75
2023/04/13 07:21:14;;;;;;;;;;;;;;;;;;5007453;28;20515;-75
2023/04/13 07:23:41;;;;;;;15.80;3.17;;;;;;;;;;5008229;28;20366;-77
2023/04/13 07:26:13;;;;;;;15.70;3.17;;;;;;;;;;4998816;28;20081;-75
2023/04/13 07:28:40;;;;;;;10.82;2.83;;;;;;;;;;5003428;28;20030;-77
2023/04/13 07:31:06;;;;;;;13.98;2.97;;;;;;;;;;4999712;28;20052;-76
2023/04/13 07:33:32;;;;;;;13.45;2.97;;;;;;;;;;5006304;28;20372;-76
2023/04/13 07:35:58;;;;;;;;;;;;;;;;;;5001869;28;20061;-74
2023/04/13 07:38:25;;;;;;;14.00;3.08;;;;;;;;;;5001976;28;20454;-75
2023/04/13 07:40:51;;;;;;;14.38;3.08;;;;;;;;;;5001409;28;20600;-75
2023/04/13 07:43:17;;;;;;;;;;;;;;;;;;4999446;28;20485;-76
2023/04/13 07:45:43;;;;;;;13.18;2.88;;;;;;;;;;5005948;28;20019;-75
2023/04/13 07:48:09;;;;;;;12.77;3.13;;;;;;;;;;5000350;28;21343;-76
2023/04/13 07:50:42;;;;;;;14.85;3.63;;;;;;;;;;4999713;28;20025;-75
2023/04/13 07:53:08;;;;;;;14.50;3.15;;;;;;;;;;4996758;28;20447;-76
2023/04/13 07:55:36;;;;;;;15.35;3.17;;;;;;;;;;5004315;28;20442;-77
2023/04/13 07:58:02;;;;;;;18.25;3.78;;;;;;;;;;4997117;28;20028;-76
2023/04/13 08:00:28;;;;;;;18.55;3.88;;;;;;;;;;5003800;28;20038;-76
2023/04/13 08:02:55;;;;;;;15.52;3.55;;;;;;;;;;5007090;28;20515;-75
2023/04/13 08:05:22;;;;;;;19.83;3.55;;;;;;;;;;5005910;28;20041;-77
2023/04/13 08:07:48;;;;;;;19.70;3.58;;;;;;;;;;5004517;28;20009;-75
2023/04/13 08:10:15;;;;;;;;;;;;;;;;;;5000212;28;20109;-76
2023/04/13 08:12:41;;;;;;;12.85;2.95;;;;;;;;;;5003850;28;19910;-77
2023/04/13 08:15:08;;;;;;;15.13;3.10;;;;;;;;;;5002080;28;20132;-77
2023/04/13 08:17:34;;;;;;;12.20;2.92;;;;;;;;;;5000463;28;20065;-77
2023/04/13 08:20:01;;;;;;;18.67;3.83;;;;;;;;;;4998261;28;20084;-78
2023/04/13 08:22:27;;;;;;;13.07;3.30;;;;;;;;;;5004445;28;20025;-77
2023/04/13 08:24:53;;;;;;;;;;;;;;;;;;5002848;28;20021;-76
2023/04/13 08:27:19;;;;;;;13.63;3.43;;;;;;;;;;5000944;28;19971;-76
2023/04/13 08:29:45;;;;;;;16.75;3.03;;;;;;;;;;5005858;28;20858;-76
2023/04/13 08:32:11;;;;;;;13.10;3.13;;;;;;;;;;5003457;28;20142;-77
2023/04/13 08:34:38;;;;;;;15.52;3.35;;;;;;;;;;5008576;28;20046;-76
2023/04/13 08:37:04;;;;;;;;;;;;;;;;;;5005546;28;20029;-77
2023/04/13 08:39:30;;;;;;;16.85;2.95;;;;;;;;;;5010718;28;19909;-76
2023/04/13 08:41:56;;;;;;;15.40;3.67;;;;;;;;;;5008799;28;20116;-75
2023/04/13 08:44:23;;;;;;;16.27;3.83;;;;;;;;;;5007693;28;20429;-77
2023/04/13 08:46:49;;;;;;;16.40;4.00;;;;;;;;;;5005209;28;20026;-76
2023/04/13 08:49:15;;;;;;;13.88;3.33;;;;;;;;;;5003307;28;20053;-75
2023/04/13 08:51:44;;;;;;;15.77;3.30;;;;;;;;;;5009599;28;20181;-75
2023/04/13 08:54:12;;;;;;;14.98;3.67;;;;;;;;;;4996385;28;20038;-75
2023/04/13 08:56:40;;;;;;;13.98;3.17;;;;;;;;;;5006927;28;20303;-77
2023/04/13 08:59:07;;;;;;;16.02;3.45;;;;;;;;;;4999960;28;20369;-75
2023/04/13 09:01:37;;;;;;;15.35;3.20;;;;;;;;;;5005551;28;20088;-74
2023/04/13 09:04:06;;;;;;;15.82;3.60;;;;;;;;;;5000522;28;20592;-75
2023/04/13 09:06:34;;;;;;;18.13;3.78;;;;;;;;;;5006583;28;20469;-76
2023/04/13 09:09:04;;;;;;;16.92;3.20;;;;;;;;;;5002549;28;20456;-76
2023/04/13 09:11:31;;;;;;;22.00;4.05;;;;;;;;;;5007637;28;20029;-76
2023/04/13 09:13:57;;;;;;;14.88;3.63;;;;;;;;;;5004596;28;20041;-76
2023/04/13 09:16:23;;;;;;;18.15;3.90;;;;;;;;;;5007546;28;20636;-76
2023/04/13 09:18:54;;;;;;;15.30;3.45;;;;;;;;;;5007408;28;20061;-77
2023/04/13 09:21:21;;;;;;;16.80;3.45;;;;;;;;;;5004315;28;20512;-74
2023/04/13 09:23:54;;;;;;;16.33;3.90;;;;;;;;;;5010219;28;20037;-76
2023/04/13 09:26:21;;;;;;;14.18;3.05;;;;;;;;;;5005426;28;20033;-76
2023/04/13 09:28:48;;;;;;;12.43;3.17;;;;;;;;;;5005355;28;20424;-76
2023/04/13 09:31:15;;;;;;;12.23;2.40;;;;;;;;;;4998447;28;20022;-76
2023/04/13 09:33:45;;;;;;;12.23;2.05;;;;;;;;;;5004134;28;20044;-76
2023/04/13 09:36:15;;;;;;;9.25;1.80;;;;;;;;;;5000683;28;20036;-75
2023/04/13 09:38:43;;;;;;;10.65;1.98;;;;;;;;;;5004859;28;20039;-75
2023/04/13 09:41:09;;;;;;;8.02;1.67;;;;;;;;;;4999380;28;20720;-75
2023/04/13 09:43:36;;;;;;;10.35;1.73;;;;;;;;;;5003348;28;20368;-76
2023/04/13 09:46:03;;;;;;;8.15;1.58;;;;;;;;;;5003121;28;20034;-74
2023/04/13 09:48:30;;;;;;;10.13;1.98;;;;;;;;;;5003851;28;20029;-76
2023/04/13 09:50:59;;;;;;;9.75;2.28;;;;;;;;;;5000404;28;20033;-77
2023/04/13 09:53:28;;;;;;;10.32;2.25;;;;;;;;;;5003117;28;20032;-75
2023/04/13 09:56:00;;;;;;;9.20;1.67;;;;;;;;;;5000181;28;20584;-76
2023/04/13 09:58:26;;;;;;;8.82;1.70;;;;;;;;;;4999497;28;20045;-75
2023/04/13 10:00:53;;;;;;;9.43;1.60;;;;;;;;;;5001816;28;20083;-75
2023/04/13 10:03:21;;;;;;;7.32;1.30;;;;;;;;;;4998877;28;20048;-75
2023/04/13 10:05:47;;;;;;;6.50;1.23;;;;;;;;;;5004235;28;20034;-75
2023/04/13 10:08:13;;;;;;;8.05;1.40;;;;;;;;;;4993895;28;20112;-75
2023/04/13 10:10:40;;;;;;;5.45;1.10;;;;;;;;;;5003717;28;20045;-74
2023/04/13 10:13:10;;;;;;;6.82;1.30;;;;;;;;;;5000281;28;20033;-74
2023/04/13 10:15:36;;;;;;;7.78;1.40;;;;;;;;;;5003259;28;20338;-76
2023/04/13 10:18:21;;;;;;;5.10;0.88;;;;;;;;;;5001423;28;20119;-77
2023/04/13 10:20:48;;;;;;;4.32;0.93;;;;;;;;;;5003722;28;20043;-76
2023/04/13 10:23:14;;;;;;;6.40;1.25;;;;;;;;;;4998701;28;20523;-75
2023/04/13 10:25:53;;;;;;;6.20;0.85;;;;;;;;;;5005765;28;20045;-75
2023/04/13 10:28:20;;;;;;;6.55;1.08;;;;;;;;;;4998462;28;20396;-75
2023/04/13 10:30:50;;;;;;;5.97;1.10;;;;;;;;;;5014343;28;20041;-77
2023/04/13 10:33:16;;;;;;;6.95;1.30;;;;;;;;;;4995730;28;20041;-76
2023/04/13 10:35:53;;;;;;;5.05;0.90;;;;;;;;;;5005872;28;20060;-77
2023/04/13 10:38:19;;;;;;;6.10;1.00;;;;;;;;;;4997991;28;20048;-75
2023/04/13 10:40:46;;;;;;;5.50;1.10;;;;;;;;;;5007637;28;20523;-75
2023/04/13 10:43:12;;;;;;;6.55;1.20;;;;;;;;;;5000378;28;20291;-76
2023/04/13 10:45:39;;;;;;;6.85;1.20;;;;;;;;;;5003862;28;20569;-75
2023/04/13 10:48:06;;;;;;;4.85;1.25;;;;;;;;;;4997524;28;20028;-76
2023/04/13 10:50:32;;;;;;;7.05;1.25;;;;;;;;;;5006761;28;20040;-77
2023/04/13 10:53:03;;;;;;;4.85;0.98;;;;;;;;;;4999827;28;20127;-75
2023/04/13 10:55:30;;;;;;;7.68;1.13;;;;;;;;;;5003463;28;20036;-75
2023/04/13 10:57:57;;;;;;;10.30;1.38;;;;;;;;;;5003763;28;20033;-75
2023/04/13 11:00:24;;;;;;;6.75;1.10;;;;;;;;;;5001135;28;20080;-75
2023/04/13 11:02:52;;;;;;;7.53;1.40;;;;;;;;;;5008846;28;20064;-75
2023/04/13 11:05:19;;;;;;;6.72;1.40;;;;;;;;;;5000385;28;20053;-76
2023/04/13 11:07:49;;;;;;;7.03;1.27;;;;;;;;;;5004128;28;20480;-75
2023/04/13 11:10:16;;;;;;;7.22;1.35;;;;;;;;;;5003888;28;20057;-75
2023/04/13 11:12:48;;;;;;;6.50;1.30;;;;;;;;;;5002611;28;20624;-75
2023/04/13 11:15:22;;;;;;;9.48;1.70;;;;;;;;;;4998714;28;20033;-75
2023/04/13 11:17:58;;;;;;;6.60;1.42;;;;;;;;;;5003316;28;20450;-76
2023/04/13 11:20:24;;;;;;;;;;;;;;;;;;4999724;28;20038;-76
2023/04/13 11:22:50;;;;;;;7.13;1.50;;;;;;;;;;5004973;28;19943;-77
2023/04/13 11:25:16;;;;;;;11.00;1.52;;;;;;;;;;4997733;28;20114;-76
2023/04/13 11:27:43;;;;;;;7.88;1.58;;;;;;;;;;5005361;28;20028;-78
2023/04/13 11:30:10;;;;;;;8.23;1.50;;;;;;;;;;4997691;28;20055;-77
2023/04/13 11:32:38;;;;;;;7.18;1.30;;;;;;;;;;5003488;28;20033;-75
2023/04/13 11:35:07;;;;;;;7.25;1.25;;;;;;;;;;5001802;28;20037;-75
2023/04/13 11:37:40;;;;;;;6.07;1.10;;;;;;;;;;5006418;28;20018;-77
2023/04/13 11:40:25;;;;;;;7.07;1.38;;;;;;;;;;5000410;28;20384;-77
2023/04/13 11:42:55;;;;;;;7.20;1.17;;;;;;;;;;5004568;28;20109;-76
2023/04/13 11:45:24;;;;;;;6.03;1.20;;;;;;;;;;5005055;28;20022;-75
2023/04/13 11:47:51;;;;;;;8.98;1.38;;;;;;;;;;5006877;28;20446;-77
2023/04/13 11:50:18;;;;;;;8.50;1.17;;;;;;;;;;4999170;28;20045;-76
2023/04/13 11:52:48;;;;;;;5.88;1.15;;;;;;;;;;5002467;28;20072;-75
2023/04/13 11:55:14;;;;;;;10.25;1.23;;;;;;;;;;4999974;28;20932;-77
2023/04/13 11:57:41;;;;;;;7.82;1.42;;;;;;;;;;5002037;28;20437;-77
2023/04/13 12:00:22;;;;;;;8.20;1.08;;;;;;;;;;5002509;28;20112;-76
2023/04/13 12:02:50;;;;;;;7.35;1.30;;;;;;;;;;5006566;28;20049;-76
2023/04/13 12:05:21;;;;;;;6.32;1.42;;;;;;;;;;5005325;28;20025;-77
2023/04/13 12:07:47;;;;;;;5.35;1.20;;;;;;;;;;5002748;28;20043;-76
2023/04/13 12:10:26;;;;;;;8.68;1.27;;;;;;;;;;5006392;28;20030;-77
2023/04/13 12:12:59;;;;;;;8.27;1.30;;;;;;;;;;5005438;28;20021;-76
2023/04/13 12:15:29;;;;;;;5.00;0.98;;;;;;;;;;5010124;28;20041;-75
2023/04/13 12:17:56;;;;;;;8.40;1.38;;;;;;;;;;5008242;28;20029;-75
2023/04/13 12:20:23;;;;;;;11.35;1.52;;;;;;;;;;5006457;28;20136;-77
2023/04/13 12:22:49;;;;;;;9.52;1.50;;;;;;;;;;5004738;28;20029;-78
2023/04/13 12:25:17;;;;;;;10.25;1.08;;;;;;;;;;5004679;28;20063;-79
2023/04/13 12:27:43;;;;;;;8.95;1.35;;;;;;;;;;5012878;28;20115;-75
2023/04/13 12:30:12;;;;;;;8.55;1.40;;;;;;;;;;5005540;28;20030;-77
2023/04/13 12:32:40;;;;;;;5.38;1.00;;;;;;;;;;5012317;28;20029;-77
2023/04/13 12:35:07;;;;;;;8.93;1.63;;;;;;;;;;5011725;28;20626;-77
2023/04/13 12:37:33;;;;;;;7.30;1.20;;;;;;;;;;5003342;28;20024;-77
2023/04/13 12:39:59;;;;;;;8.35;1.75;;;;;;;;;;5006865;28;20273;-76
2023/04/13 12:42:27;;;;;;;8.10;1.23;;;;;;;;;;5020163;28;20578;-75
2023/04/13 12:44:55;;;;;;;8.23;1.42;;;;;;;;;;5020797;28;20033;-78
2023/04/13 12:47:23;;;;;;;11.77;1.58;;;;;;;;;;5015197;28;20618;-76
2023/04/13 12:49:49;;;;;;;8.88;1.20;;;;;;;;;;5009023;28;20333;-77
2023/04/13 12:52:15;;;;;;;5.95;1.15;;;;;;;;;;5004443;28;20041;-76
2023/04/13 12:54:41;;;;;;;7.30;1.42;;;;;;;;;;5010219;28;20112;-76
2023/04/13 12:57:08;;;;;;;7.72;1.50;;;;;;;;;;5002494;28;20399;-76
2023/04/13 12:59:34;;;;;;;6.55;1.38;;;;;;;;;;5009047;28;20107;-74
2023/04/13 13:02:00;;;;;;;7.22;1.08;;;;;;;;;;5005828;28;20037;-76
2023/04/13 13:04:28;;;;;;;6.80;1.40;;;;;;;;;;5008696;28;20479;-77
2023/04/13 13:06:55;;;;;;;8.27;1.42;;;;;;;;;;5002607;28;20021;-76
2023/04/13 13:09:21;;;;;;;7.15;1.35;;;;;;;;;;5003289;28;20429;-76
2023/04/13 13:11:47;;;;;;;8.30;1.10;;;;;;;;;;5009778;28;20249;-77
2023/04/13 13:14:13;;;;;;;12.00;1.40;;;;;;;;;;5002806;28;20320;-76
2023/04/13 13:16:39;;;;;;;9.82;1.25;;;;;;;;;;5012505;28;20033;-75
2023/04/13 13:19:06;;;;;;;8.95;1.20;;;;;;;;;;5003488;28;20029;-75
2023/04/13 13:21:32;;;;;;;7.60;1.40;;;;;;;;;;5008866;28;20254;-74
2023/04/13 13:23:58;;;;;;;8.30;1.25;;;;;;;;;;5004396;28;20041;-76
2023/04/13 13:26:25;;;;;;;7.55;1.00;;;;;;;;;;5008759;28;20102;-77
2023/04/13 13:28:51;;;;;;;8.55;1.42;;;;;;;;;;5006535;28;20519;-75
2023/04/13 13:31:17;;;;;;;8.35;1.38;;;;;;;;;;5001995;28;20099;-76
2023/04/13 13:33:43;;;;;;;6.35;1.02;;;;;;;;;;5005594;28;20038;-75
2023/04/13 13:36:11;;;;;;;9.63;1.50;;;;;;;;;;5002315;28;21022;-77
2023/04/13 13:38:37;;;;;;;10.75;1.40;;;;;;;;;;5003277;28;20037;-76
2023/04/13 13:41:03;;;;;;;7.32;1.23;;;;;;;;;;4997266;28;20459;-74
2023/04/13 13:43:29;;;;;;;8.50;1.42;;;;;;;;;;5008518;28;20045;-76
2023/04/13 13:45:56;;;;;;;7.25;1.10;;;;;;;;;;5004343;28;20117;-76
2023/04/13 13:48:22;;;;;;;9.93;1.40;;;;;;;;;;5010301;28;20069;-77
2023/04/13 13:50:49;;;;;;;9.65;1.58;;;;;;;;;;5002102;28;20145;-77
2023/04/13 13:53:15;;;;;;;11.40;1.77;;;;;;;;;;5001311;28;20416;-77
2023/04/13 13:55:41;;;;;;;7.22;1.23;;;;;;;;;;5016180;28;20175;-76
2023/04/13 13:58:07;;;;;;;9.95;1.35;;;;;;;;;;4999945;28;20036;-77
2023/04/13 14:00:33;;;;;;;8.30;1.20;;;;;;;;;;5001588;28;20207;-77
2023/04/13 14:02:59;;;;;;;7.75;1.65;;;;;;;;;;5004661;28;20149;-77
2023/04/13 14:05:26;;;;;;;7.45;1.30;;;;;;;;;;5010816;28;20426;-77
2023/04/13 14:07:52;;;;;;;6.18;1.30;;;;;;;;;;5006331;28;20216;-78
2023/04/13 14:10:18;;;;;;;8.52;1.60;;;;;;;;;;5017235;28;20254;-75
2023/04/13 14:12:45;;;;;;;8.13;1.45;;;;;;;;;;5002855;28;20559;-76
2023/04/13 14:15:12;;;;;;;8.23;1.30;;;;;;;;;;4996559;28;20083;-75
2023/04/13 14:17:38;;;;;;;8.57;1.30;;;;;;;;;;5004554;28;20037;-75
2023/04/13 14:20:08;;;;;;;7.90;1.40;;;;;;;;;;5004251;28;20075;-75
2023/04/13 14:22:35;;;;;;;6.70;1.08;;;;;;;;;;5004397;28;20026;-75
2023/04/13 14:25:01;;;;;;;9.55;1.25;;;;;;;;;;5000607;28;20025;-77
2023/04/13 14:27:27;;;;;;;7.82;1.60;;;;;;;;;;5008234;28;20251;-76
2023/04/13 14:29:53;;;;;;;7.75;1.30;;;;;;;;;;4998879;28;20111;-75
2023/04/13 14:32:19;;;;;;;9.93;1.50;;;;;;;;;;4997985;28;20030;-76
2023/04/13 14:34:46;;;;;;;9.68;0.88;;;;;;;;;;5004425;28;20029;-76
2023/04/13 14:37:13;;;;;;;9.77;1.30;;;;;;;;;;4998820;28;20340;-76
2023/04/13 14:39:39;;;;;;;6.32;1.10;;;;;;;;;;5005815;28;20149;-77
2023/04/13 14:42:06;;;;;;;6.25;1.00;;;;;;;;;;5004875;28;20041;-76
2023/04/13 14:44:33;;;;;;;10.00;1.33;;;;;;;;;;5002611;28;20021;-75
2023/04/13 14:46:59;;;;;;;9.40;1.38;;;;;;;;;;5005543;28;20341;-76
2023/04/13 14:49:25;;;;;;;6.47;1.40;;;;;;;;;;5005767;28;21028;-76